METAR AND TAF INFORMATION
METAR FOR EBCI
ADDS - METARS form results

(1602 UTC 31 March 2020)
Data provider http://aviationweather.gov/metar/data/
 
METAR text: EBCI 311550Z AUTO 05012KT CAVOK 08/M05 Q1027
Conditions at: EBCI (CHARLEROI/GOSSEL, BE) observed 1550 UTC 31 March 2020
Temperature: 8.0°C (46°F)
Dewpoint: -5.0°C (23°F) [RH = 39%]
Pressure (altimeter): 30.32 inches Hg (1027.0 mb)
Winds: from the NE (50 degrees) at 14 MPH (12 knots; 6.2 m/s)
Visibility: 6 or more miles (10+ km)
Ceiling: ceiling and visibility are OK
Clouds: unknown
Weather: no significant weather observed at this time

METAR text: EBCI 311520Z AUTO 05013KT 010V070 CAVOK 08/M04 Q1027
Conditions at: EBCI (CHARLEROI/GOSSEL, BE) observed 1520 UTC 31 March 2020
Temperature: 8.0°C (46°F)
Dewpoint: -4.0°C (25°F) [RH = 42%]
Pressure (altimeter): 30.32 inches Hg (1027.0 mb)
Winds: from the NE (50 degrees) at 15 MPH (13 knots; 6.7 m/s)
Visibility: 6 or more miles (10+ km)
Ceiling: ceiling and visibility are OK
Clouds: unknown
Weather: no significant weather observed at this time

Forecast for: EBCI (CHARLEROI/GOSSEL, BE)
Text: TAF EBCI 311103Z 3112/0118 05008KT 9999 FEW040
Forecast period: 1200 UTC 31 March 2020 to 1800 UTC 01 April 2020
Forecast type: FROM: standard forecast or significant change
Winds: from the NE (50 degrees) at 9 MPH (8 knots; 4.1 m/s)
Visibility: 6 or more miles 10+ km)
Ceiling: at least 12,000 feet AGL
Clouds: few clouds at 4000 feet AGL
Weather: no significant weather forecast for this period

 AIRPORT MAP

 RUNWAY INFORMATION
Runway 07 Runway length 8366 ft Runway width 148 ft
Runway elevation 611 ft Runway displaced threshold 1477 ft Runway heading 66
Runway 25 Runway length 8366 ft Runway width 148 ft
Runway elevation 583 ft Runway displaced threshold 0 ft Runway heading 246

 AIRPORT FREQUENCIES
Type APP Name CHARLEROI Frequency 133.125 MHZ
Type ATIS Name ATIS Frequency 134.625 MHZ
Type GND Name CHARLEROI Frequency 121.8 MHZ
Type TWR Name CHARLEROI Frequency 121.3 MHZ

 AIRPORT NEAR NAVIGATION AIDS
Type VOR-DME Name Gosly Frequency 115700 KHZ
Type NDB Name Charleroi Frequency 323 KHZ



Powered by Virtual Airlines Manager [v2.6.2]